createdAt,value
2019-05-29T00:00:18.733Z,97230.02
2019-05-29T00:02:49.901Z,97231.50
2019-05-29T00:05:20.962Z,97230.19
2019-05-29T00:07:52.284Z,97245.81
2019-05-29T00:10:23.724Z,97254.69
2019-05-29T00:12:54.850Z,97253.38
2019-05-29T00:15:26.060Z,97257.94
2019-05-29T00:17:57.154Z,97255.97
2019-05-29T00:20:28.347Z,97261.81
2019-05-29T00:22:59.902Z,97257.58
2019-05-29T00:25:30.840Z,97251.48
2019-05-29T00:28:01.872Z,97258.19
2019-05-29T00:30:32.929Z,97273.28
2019-05-29T00:33:04.075Z,97271.22
2019-05-29T00:35:36.662Z,97276.41
2019-05-29T00:38:08.480Z,97278.03
2019-05-29T00:40:39.940Z,97287.20
2019-05-29T00:43:11.270Z,97290.77
2019-05-29T00:45:42.484Z,97295.67
2019-05-29T00:48:14.043Z,97296.48
2019-05-29T00:50:45.716Z,97307.84
2019-05-29T00:53:18.339Z,97302.19
2019-05-29T00:55:49.458Z,97314.34
2019-05-29T00:58:20.730Z,97311.87
2019-05-29T01:00:52.036Z,97316.08
2019-05-29T01:03:23.240Z,97304.44
2019-05-29T01:05:54.539Z,97308.97
2019-05-29T01:08:25.720Z,97313.94
2019-05-29T01:10:56.994Z,97312.34
2019-05-29T01:13:28.057Z,97316.25
2019-05-29T01:15:59.074Z,97326.63
2019-05-29T01:18:30.222Z,97324.64
2019-05-29T01:21:01.223Z,97325.45
2019-05-29T01:23:32.390Z,97320.94
2019-05-29T01:26:03.571Z,97326.89
2019-05-29T01:28:36.186Z,97333.53
2019-05-29T01:31:07.110Z,97337.89
2019-05-29T01:33:38.382Z,97338.38
2019-05-29T01:36:09.612Z,97337.30
2019-05-29T01:38:40.666Z,97342.95
2019-05-29T01:41:11.806Z,97340.31
2019-05-29T01:43:42.645Z,97342.13
2019-05-29T01:46:13.637Z,97353.07
2019-05-29T01:48:44.829Z,97349.84
2019-05-29T01:51:15.808Z,97362.84
2019-05-29T01:53:46.759Z,97362.11
2019-05-29T01:56:17.867Z,97365.95
2019-05-29T01:58:49.562Z,97370.18
2019-05-29T02:01:21.914Z,97371.50
2019-05-29T02:03:53.048Z,97376.16
2019-05-29T02:06:24.545Z,97374.67
2019-05-29T02:08:55.838Z,97377.05
2019-05-29T02:11:27.525Z,97381.32
2019-05-29T02:13:58.995Z,97379.84
2019-05-29T02:16:30.047Z,97386.86
2019-05-29T02:19:01.139Z,97389.98
2019-05-29T02:21:32.248Z,97394.25
2019-05-29T02:24:03.305Z,97397.53
2019-05-29T02:26:34.273Z,97401.81
2019-05-29T02:29:05.503Z,97409.02
2019-05-29T02:31:36.585Z,97419.05
2019-05-29T02:34:07.736Z,97418.47
2019-05-29T02:36:38.713Z,97422.05
2019-05-29T02:39:09.959Z,97421.88
2019-05-29T02:41:41.117Z,97416.95
2019-05-29T02:44:12.522Z,97420.89
2019-05-29T02:46:43.713Z,97421.88
2019-05-29T02:49:14.963Z,97428.88
2019-05-29T02:51:46.127Z,97432.57
2019-05-29T02:54:17.339Z,97436.61
2019-05-29T02:56:48.643Z,97435.41
2019-05-29T02:59:21.137Z,97444.12
2019-05-29T03:01:55.771Z,97444.61
2019-05-29T03:04:28.200Z,97449.47
2019-05-29T03:07:00.512Z,97449.93
2019-05-29T03:09:32.651Z,97457.84
2019-05-29T03:12:04.012Z,97462.61
2019-05-29T03:14:35.041Z,97464.59
2019-05-29T03:17:06.149Z,97468.34
2019-05-29T03:19:37.305Z,97467.03
2019-05-29T03:22:08.381Z,97483.97
2019-05-29T03:24:39.731Z,97486.79
2019-05-29T03:27:11.055Z,97489.61
2019-05-29T03:29:42.151Z,97499.03
2019-05-29T03:32:14.517Z,97509.09
2019-05-29T03:34:47.874Z,97511.94
2019-05-29T03:37:19.231Z,97510.26
2019-05-29T03:39:50.398Z,97522.94
2019-05-29T03:42:21.405Z,97522.23
2019-05-29T03:44:52.550Z,97537.12
2019-05-29T03:47:23.468Z,97538.70
2019-05-29T03:49:54.400Z,97539.52
2019-05-29T03:52:26.294Z,97542.52
2019-05-29T03:54:57.889Z,97555.70
2019-05-29T03:57:29.795Z,97554.09
2019-05-29T04:00:01.742Z,97564.59
2019-05-29T04:02:35.517Z,97566.73
2019-05-29T04:05:08.907Z,97571.12
2019-05-29T04:07:39.949Z,97575.59
2019-05-29T04:10:11.435Z,97580.98
2019-05-29T04:12:42.699Z,97590.89
2019-05-29T04:15:14.133Z,97594.06
2019-05-29T04:17:46.279Z,97597.24
2019-05-29T04:20:17.444Z,97601.60
2019-05-29T04:22:51.660Z,97612.17
2019-05-29T04:25:22.676Z,97620.10
2019-05-29T04:27:55.146Z,97618.25
2019-05-29T04:30:28.084Z,97634.20
2019-05-29T04:32:58.936Z,97635.75
2019-05-29T04:35:32.395Z,97634.28
2019-05-29T04:38:03.704Z,97648.59
2019-05-29T04:40:35.214Z,97651.08
2019-05-29T04:43:07.703Z,97654.39
2019-05-29T04:45:40.022Z,97664.98
2019-05-29T04:48:11.359Z,97667.23
2019-05-29T04:50:42.541Z,97674.52
2019-05-29T04:53:13.771Z,97688.04
2019-05-29T04:55:44.858Z,97690.95
2019-05-29T04:58:16.068Z,97694.41
2019-05-29T05:00:58.583Z,97700.68
2019-05-29T05:03:19.800Z,97710.55
2019-05-29T05:05:51.020Z,97709.82
2019-05-29T05:08:21.990Z,97706.03
2019-05-29T05:10:53.462Z,97707.81
2019-05-29T05:13:24.756Z,97715.56
2019-05-29T05:15:59.122Z,97721.05
2019-05-29T05:18:30.100Z,97723.75
2019-05-29T05:21:01.228Z,97723.53
2019-05-29T05:23:32.342Z,97734.50
2019-05-29T05:26:03.460Z,97733.70
2019-05-29T05:28:34.524Z,97739.19
2019-05-29T05:31:05.779Z,97744.89
2019-05-29T05:33:36.970Z,97752.14
2019-05-29T05:36:08.209Z,97756.86
2019-05-29T05:38:39.154Z,97755.13
2019-05-29T05:41:10.319Z,97763.35
2019-05-29T05:43:41.649Z,97766.61
2019-05-29T05:46:12.829Z,97767.28
2019-05-29T05:48:43.866Z,97768.03
2019-05-29T05:51:15.148Z,97772.66
2019-05-29T05:53:46.196Z,97766.84
2019-05-29T05:56:18.685Z,97774.22
2019-05-29T05:58:49.649Z,97772.23
2019-05-29T06:01:20.843Z,97772.23
2019-05-29T06:03:52.324Z,97778.25
2019-05-29T06:06:23.555Z,97774.71
2019-05-29T06:08:54.603Z,97790.64
2019-05-29T06:11:25.762Z,97796.11
2019-05-29T06:13:56.755Z,97798.70
2019-05-29T06:16:27.745Z,97811.64
2019-05-29T06:18:59.222Z,97811.07
2019-05-29T06:21:30.212Z,97817.13
2019-05-29T06:24:01.267Z,97816.86
2019-05-29T06:26:32.796Z,97829.81
2019-05-29T06:29:04.186Z,97828.37
2019-05-29T06:31:35.414Z,97826.57
2019-05-29T06:34:06.671Z,97831.88
2019-05-29T06:36:39.523Z,97832.78
2019-05-29T06:39:10.892Z,97840.95
2019-05-29T06:41:42.147Z,97842.79
2019-05-29T06:44:13.585Z,97845.63
2019-05-29T06:46:45.486Z,97852.61
2019-05-29T06:49:16.704Z,97846.46
2019-05-29T06:51:47.823Z,97848.84
2019-05-29T06:54:18.672Z,97857.64
2019-05-29T06:56:49.768Z,97858.09
2019-05-29T06:59:21.060Z,97863.58
2019-05-29T07:01:52.175Z,97868.74
2019-05-29T07:04:23.265Z,97874.09
2019-05-29T07:06:54.593Z,97875.95
2019-05-29T07:09:25.510Z,97880.55
2019-05-29T07:11:57.191Z,97884.69
2019-05-29T07:14:28.131Z,97898.02
2019-05-29T07:16:59.163Z,97889.66
2019-05-29T07:19:47.565Z,97899.17
2019-05-29T07:22:03.383Z,97901.05
2019-05-29T07:24:34.505Z,97905.09
2019-05-29T07:27:05.543Z,97914.83
2019-05-29T07:29:36.986Z,97909.23
2019-05-29T07:32:09.093Z,97921.14
2019-05-29T07:34:52.606Z,97911.59
2019-05-29T07:37:13.265Z,97918.66
2019-05-29T07:39:45.586Z,97917.06
2019-05-29T07:42:16.865Z,97922.00
2019-05-29T07:44:48.191Z,97926.59
2019-05-29T07:47:19.379Z,97925.89
2019-05-29T07:49:50.527Z,97927.30
2019-05-29T07:52:21.621Z,97931.81
2019-05-29T07:54:52.766Z,97936.22
2019-05-29T07:57:23.780Z,97945.28
2019-05-29T07:59:54.758Z,97947.27
2019-05-29T08:02:25.844Z,97946.93
2019-05-29T08:04:56.917Z,97949.08
2019-05-29T08:07:27.921Z,97951.19
2019-05-29T08:09:58.940Z,97961.48
2019-05-29T08:12:30.005Z,97963.73
2019-05-29T08:15:01.195Z,97966.52
2019-05-29T08:17:32.831Z,97969.16
2019-05-29T08:20:07.774Z,97969.30
2019-05-29T08:22:38.575Z,97970.30
2019-05-29T08:25:10.577Z,97975.09
2019-05-29T08:27:42.643Z,97984.22
2019-05-29T08:30:15.540Z,97981.82
2019-05-29T08:32:46.950Z,97989.16
2019-05-29T08:35:18.317Z,97987.59
2019-05-29T08:37:49.385Z,97982.39
2019-05-29T08:40:21.628Z,97990.60
2019-05-29T08:42:53.225Z,97989.91
2019-05-29T08:45:24.480Z,97989.13
2019-05-29T08:47:56.915Z,97995.44
2019-05-29T08:50:27.951Z,98001.64
2019-05-29T08:53:02.418Z,98008.66
2019-05-29T08:55:32.118Z,98005.74
2019-05-29T08:58:03.614Z,98008.66
2019-05-29T09:00:34.975Z,98010.48
2019-05-29T09:03:07.422Z,98011.00
2019-05-29T09:05:38.648Z,98010.09
2019-05-29T09:08:09.887Z,98015.88
2019-05-29T09:10:41.191Z,98020.92
2019-05-29T09:13:12.661Z,98020.13
2019-05-29T09:15:43.848Z,98030.79
2019-05-29T09:18:15.385Z,98028.23
2019-05-29T09:21:02.070Z,98033.48
2019-05-29T09:23:21.062Z,98037.64
2019-05-29T09:25:52.234Z,98041.18
2019-05-29T09:28:22.217Z,98042.52
2019-05-29T09:30:53.541Z,98053.17
2019-05-29T09:33:24.926Z,98061.61
2019-05-29T09:35:56.538Z,98057.00
2019-05-29T09:38:27.752Z,98061.77
2019-05-29T09:40:58.862Z,98062.32
2019-05-29T09:43:30.856Z,98070.73
2019-05-29T09:46:02.445Z,98071.45
2019-05-29T09:48:48.833Z,98073.06
2019-05-29T09:51:20.659Z,98085.48
2019-05-29T09:53:40.346Z,98079.72
2019-05-29T09:56:11.638Z,98080.83
2019-05-29T09:58:42.989Z,98084.48
2019-05-29T10:01:22.706Z,98090.16
2019-05-29T10:03:47.603Z,98095.93
2019-05-29T10:06:18.805Z,98096.81
2019-05-29T10:08:49.835Z,98095.68
2019-05-29T10:11:21.192Z,98096.27
2019-05-29T10:13:53.696Z,98099.83
2019-05-29T10:16:25.369Z,98103.84
2019-05-29T10:18:58.492Z,98108.02
2019-05-29T10:21:40.126Z,98112.40
2019-05-29T10:24:04.170Z,98116.03
2019-05-29T10:26:35.617Z,98114.64
2019-05-29T10:29:09.663Z,98119.05
2019-05-29T10:31:41.915Z,98124.81
2019-05-29T10:34:13.822Z,98125.37
2019-05-29T10:36:49.949Z,98131.86
2019-05-29T10:39:19.113Z,98132.09
2019-05-29T10:41:50.969Z,98136.00
2019-05-29T10:44:22.046Z,98139.13
2019-05-29T10:46:54.719Z,98152.57
2019-05-29T10:49:26.062Z,98147.52
2019-05-29T10:52:11.895Z,98149.64
2019-05-29T10:54:29.816Z,98148.13
2019-05-29T10:57:00.932Z,98156.28
2019-05-29T10:59:32.301Z,98159.41
2019-05-29T11:02:03.452Z,98167.66
2019-05-29T11:04:34.855Z,98171.91
2019-05-29T11:07:06.190Z,98173.77
2019-05-29T11:09:44.593Z,98172.86
2019-05-29T11:12:10.231Z,98183.00
2019-05-29T11:14:41.405Z,98188.78
2019-05-29T11:17:13.213Z,98188.23
2019-05-29T11:19:44.306Z,98193.20
2019-05-29T11:22:25.779Z,98194.73
2019-05-29T11:24:49.913Z,98191.11
2019-05-29T11:27:21.209Z,98192.20
2019-05-29T11:29:53.253Z,98193.27
2019-05-29T11:32:24.804Z,98200.36
2019-05-29T11:34:57.409Z,98204.05
2019-05-29T11:37:28.404Z,98202.92
2019-05-29T11:39:59.955Z,98202.55
2019-05-29T11:42:31.044Z,98195.86
2019-05-29T11:45:03.630Z,98198.27
2019-05-29T11:47:34.969Z,98198.08
2019-05-29T11:50:19.023Z,98201.23
2019-05-29T11:52:45.242Z,98204.41
2019-05-29T11:55:17.248Z,98207.91
2019-05-29T11:57:48.203Z,98205.36
2019-05-29T12:00:21.287Z,98205.49
2019-05-29T12:02:53.932Z,98207.19
2019-05-29T12:05:25.921Z,98205.05
2019-05-29T12:07:57.570Z,98215.24
2019-05-29T12:10:28.847Z,98220.64
2019-05-29T12:13:01.629Z,98220.30
2019-05-29T12:15:33.041Z,98212.58
2019-05-29T12:18:20.001Z,98215.77
2019-05-29T12:20:37.166Z,98217.52
2019-05-29T12:23:24.385Z,98224.06
2019-05-29T12:25:41.322Z,98224.59
2019-05-29T12:28:12.448Z,98220.64
2019-05-29T12:30:43.659Z,98227.00
2019-05-29T12:33:14.818Z,98227.98
2019-05-29T12:35:49.508Z,98230.06
2019-05-29T12:38:19.601Z,98230.97
2019-05-29T12:40:51.047Z,98236.14
2019-05-29T12:43:27.262Z,98233.64
2019-05-29T12:45:55.657Z,98231.71
2019-05-29T12:48:26.863Z,98226.53
2019-05-29T12:50:58.339Z,98232.81
2019-05-29T12:53:31.479Z,98229.95
2019-05-29T12:56:04.628Z,98237.41
2019-05-29T12:58:35.821Z,98237.25
2019-05-29T13:01:06.889Z,98235.31
2019-05-29T13:03:38.004Z,98243.74
2019-05-29T13:06:09.219Z,98240.55
2019-05-29T13:08:40.514Z,98240.40
2019-05-29T13:11:13.245Z,98242.88
2019-05-29T13:13:44.469Z,98239.72
2019-05-29T13:16:15.828Z,98233.16
2019-05-29T13:18:47.060Z,98238.01
2019-05-29T13:21:18.257Z,98245.45
2019-05-29T13:23:49.464Z,98241.48
2019-05-29T13:26:20.831Z,98245.45
2019-05-29T13:28:52.020Z,98246.45
2019-05-29T13:31:23.623Z,98248.02
2019-05-29T13:33:55.615Z,98245.03
2019-05-29T13:36:26.800Z,98255.67
2019-05-29T13:38:58.182Z,98248.02
2019-05-29T13:41:29.409Z,98253.20
2019-05-29T13:44:00.926Z,98254.95
2019-05-29T13:46:32.117Z,98255.55
2019-05-29T13:49:03.399Z,98255.83
2019-05-29T13:51:34.662Z,98257.72
2019-05-29T13:54:13.276Z,98260.53
2019-05-29T13:56:38.749Z,98263.81
2019-05-29T13:59:10.094Z,98267.80
2019-05-29T14:01:41.351Z,98267.27
2019-05-29T14:04:12.514Z,98270.41
2019-05-29T14:06:43.582Z,98271.04
2019-05-29T14:09:14.880Z,98269.88
2019-05-29T14:11:46.093Z,98266.93
2019-05-29T14:14:17.493Z,98265.94
2019-05-29T14:16:48.762Z,98268.59
2019-05-29T14:19:20.309Z,98271.04
2019-05-29T14:21:51.470Z,98273.03
2019-05-29T14:24:29.241Z,98272.23
2019-05-29T14:26:55.440Z,98271.24
2019-05-29T14:29:26.596Z,98275.41
2019-05-29T14:31:57.774Z,98275.61
2019-05-29T14:34:28.906Z,98275.80
2019-05-29T14:37:02.734Z,98279.12
2019-05-29T14:39:32.971Z,98283.40
2019-05-29T14:42:04.358Z,98278.20
2019-05-29T14:44:36.706Z,98279.25
2019-05-29T14:47:08.078Z,98275.97
2019-05-29T14:49:39.242Z,98284.11
2019-05-29T14:52:11.590Z,98281.46
2019-05-29T14:54:43.375Z,98281.22
2019-05-29T14:57:25.241Z,98278.95
2019-05-29T14:59:47.550Z,98278.03
2019-05-29T15:02:23.737Z,98287.00
2019-05-29T15:04:51.678Z,98284.69
2019-05-29T15:07:23.187Z,98288.05
2019-05-29T15:09:55.890Z,98277.72
2019-05-29T15:12:27.001Z,98284.86
2019-05-29T15:14:58.193Z,98284.66
2019-05-29T15:17:29.267Z,98278.39
2019-05-29T15:20:00.541Z,98280.39
2019-05-29T15:22:32.542Z,98284.50
2019-05-29T15:25:12.376Z,98281.05
2019-05-29T15:27:37.854Z,98280.85
2019-05-29T15:30:11.342Z,98284.80
2019-05-29T15:32:43.229Z,98290.83
2019-05-29T15:35:18.075Z,98287.18
2019-05-29T15:37:47.521Z,98296.16
2019-05-29T15:40:18.919Z,98294.20
2019-05-29T15:42:50.157Z,98293.66
2019-05-29T15:45:23.417Z,98291.50
2019-05-29T15:47:54.668Z,98298.63
2019-05-29T15:50:25.935Z,98302.95
2019-05-29T15:52:57.078Z,98303.20
2019-05-29T15:55:34.299Z,98298.58
2019-05-29T15:58:01.146Z,98306.41
2019-05-29T16:00:32.317Z,98310.66
2019-05-29T16:03:03.450Z,98312.38
2019-05-29T16:05:34.562Z,98310.13
2019-05-29T16:08:06.122Z,98313.59
2019-05-29T16:10:37.431Z,98312.22
2019-05-29T16:13:08.746Z,98318.07
2019-05-29T16:15:39.963Z,98329.10
2019-05-29T16:18:19.909Z,98320.47
2019-05-29T16:20:43.969Z,98325.54
2019-05-29T16:23:30.732Z,98335.94
2019-05-29T16:25:48.048Z,98342.62
2019-05-29T16:28:19.343Z,98342.84
2019-05-29T16:30:50.784Z,98349.77
2019-05-29T16:33:23.238Z,98345.27
2019-05-29T16:35:54.520Z,98353.60
2019-05-29T16:38:25.673Z,98347.58
2019-05-29T16:40:56.633Z,98352.30
2019-05-29T16:43:27.654Z,98354.27
2019-05-29T16:46:00.237Z,98355.56
2019-05-29T16:48:31.256Z,98356.67
2019-05-29T16:51:02.598Z,98366.58
2019-05-29T16:53:33.745Z,98360.86
2019-05-29T16:56:06.558Z,98356.77
2019-05-29T16:58:39.885Z,98362.50
2019-05-29T17:01:11.053Z,98366.03
2019-05-29T17:03:42.014Z,98370.13
2019-05-29T17:06:13.603Z,98365.10
2019-05-29T17:08:44.853Z,98373.77
2019-05-29T17:11:16.390Z,98376.49
2019-05-29T17:13:47.925Z,98381.58
2019-05-29T17:16:19.168Z,98376.56
2019-05-29T17:18:51.379Z,98379.99
2019-05-29T17:21:22.814Z,98379.02
2019-05-29T17:23:53.806Z,98383.46
2019-05-29T17:26:25.085Z,98378.67
2019-05-29T17:28:56.615Z,98380.97
2019-05-29T17:31:27.916Z,98378.96
2019-05-29T17:33:58.918Z,98389.53
2019-05-29T17:36:29.855Z,98398.52
2019-05-29T17:39:00.972Z,98401.45
2019-05-29T17:41:32.325Z,98399.44
2019-05-29T17:44:03.642Z,98399.59
2019-05-29T17:46:34.857Z,98395.69
2019-05-29T17:49:06.083Z,98393.49
2019-05-29T17:51:37.313Z,98389.80
2019-05-29T17:54:08.469Z,98396.75
2019-05-29T17:56:39.685Z,98397.67
2019-05-29T17:59:10.864Z,98394.69
2019-05-29T18:01:41.909Z,98390.98
2019-05-29T18:04:13.191Z,98388.84
2019-05-29T18:06:44.373Z,98395.09
2019-05-29T18:09:17.046Z,98395.98
2019-05-29T18:11:48.302Z,98397.05
2019-05-29T18:14:19.387Z,98397.53
2019-05-29T18:16:50.494Z,98407.11
2019-05-29T18:19:21.799Z,98412.04
2019-05-29T18:21:53.576Z,98419.08
2019-05-29T18:24:26.068Z,98426.40
2019-05-29T18:26:59.247Z,98434.16
2019-05-29T18:29:30.045Z,98440.31
2019-05-29T18:32:00.950Z,98440.01
2019-05-29T18:34:32.071Z,98447.92
2019-05-29T18:37:03.941Z,98449.61
2019-05-29T18:39:35.283Z,98457.57
2019-05-29T18:42:06.482Z,98465.66
2019-05-29T18:44:37.653Z,98472.01
2019-05-29T18:47:08.784Z,98465.45
2019-05-29T18:49:39.896Z,98471.28
2019-05-29T18:52:11.087Z,98473.60
2019-05-29T18:54:42.153Z,98473.25
2019-05-29T18:57:15.547Z,98481.41
2019-05-29T18:59:46.017Z,98489.09
2019-05-29T19:02:17.081Z,98488.67
2019-05-29T19:04:48.204Z,98489.19
2019-05-29T19:07:19.909Z,98493.52
2019-05-29T19:09:51.026Z,98496.21
2019-05-29T19:12:23.615Z,98500.80
2019-05-29T19:14:54.886Z,98505.59
2019-05-29T19:17:26.067Z,98504.08
2019-05-29T19:19:57.414Z,98516.42
2019-05-29T19:22:28.622Z,98512.38
2019-05-29T19:24:59.843Z,98516.92
2019-05-29T19:27:39.077Z,98522.94
2019-05-29T19:30:04.614Z,98523.06
2019-05-29T19:32:35.709Z,98523.77
2019-05-29T19:35:08.992Z,98523.90
2019-05-29T19:37:39.920Z,98524.87
2019-05-29T19:40:11.884Z,98514.33
2019-05-29T19:42:42.964Z,98519.83
2019-05-29T19:45:15.924Z,98523.91
2019-05-29T19:47:47.171Z,98512.42
2019-05-29T19:50:18.724Z,98519.35
2019-05-29T19:52:49.647Z,98520.09
2019-05-29T19:55:20.970Z,98521.50
2019-05-29T19:57:56.219Z,98525.10
2019-05-29T20:00:26.041Z,98535.41
2019-05-29T20:02:57.173Z,98529.30
2019-05-29T20:05:28.642Z,98534.31
2019-05-29T20:07:59.610Z,98539.23
2019-05-29T20:10:31.345Z,98544.41
2019-05-29T20:13:02.598Z,98539.36
2019-05-29T20:15:33.949Z,98537.48
2019-05-29T20:18:05.736Z,98543.33
2019-05-29T20:20:36.861Z,98546.34
2019-05-29T20:23:08.309Z,98546.92
2019-05-29T20:25:39.517Z,98548.24
2019-05-29T20:28:10.906Z,98548.98
2019-05-29T20:30:42.739Z,98555.00
2019-05-29T20:33:13.974Z,98552.37
2019-05-29T20:35:45.119Z,98559.17
2019-05-29T20:38:16.331Z,98564.83
2019-05-29T20:40:47.423Z,98561.82
2019-05-29T20:43:18.817Z,98567.70
2019-05-29T20:45:49.904Z,98562.91
2019-05-29T20:48:21.344Z,98567.22
2019-05-29T20:50:52.441Z,98572.35
2019-05-29T20:53:23.663Z,98576.55
2019-05-29T20:55:54.798Z,98581.92
2019-05-29T20:58:26.333Z,98579.67
2019-05-29T21:00:57.483Z,98582.66
2019-05-29T21:03:28.607Z,98589.72
2019-05-29T21:05:59.526Z,98592.57
2019-05-29T21:08:30.721Z,98583.48
2019-05-29T21:11:01.691Z,98596.55
2019-05-29T21:13:33.326Z,98601.08
2019-05-29T21:16:04.489Z,98603.84
2019-05-29T21:18:37.876Z,98603.12
2019-05-29T21:21:09.013Z,98597.54
2019-05-29T21:23:40.437Z,98603.16
2019-05-29T21:26:11.708Z,98602.45
2019-05-29T21:28:48.128Z,98604.21
2019-05-29T21:31:15.569Z,98602.67
2019-05-29T21:33:49.212Z,98602.69
2019-05-29T21:36:19.742Z,98604.10
2019-05-29T21:38:50.746Z,98605.42
2019-05-29T21:41:22.509Z,98607.69
2019-05-29T21:43:53.471Z,98606.15
2019-05-29T21:46:25.243Z,98615.95
2019-05-29T21:48:56.292Z,98608.28
2019-05-29T21:51:27.694Z,98613.19
2019-05-29T21:53:58.616Z,98609.98
2019-05-29T21:56:29.959Z,98611.64
2019-05-29T21:59:04.117Z,98607.60
2019-05-29T22:01:34.180Z,98604.01
2019-05-29T22:04:05.287Z,98604.84
2019-05-29T22:06:36.581Z,98609.48
2019-05-29T22:09:12.341Z,98612.59
2019-05-29T22:11:43.915Z,98611.64
2019-05-29T22:14:15.207Z,98618.21
2019-05-29T22:16:46.533Z,98612.24
2019-05-29T22:19:17.645Z,98619.42
2019-05-29T22:21:48.865Z,98618.57
2019-05-29T22:24:20.035Z,98622.05
2019-05-29T22:26:51.222Z,98618.34
2019-05-29T22:29:23.097Z,98612.11
2019-05-29T22:31:55.487Z,98618.09
2019-05-29T22:34:26.722Z,98621.08
2019-05-29T22:36:57.832Z,98622.52
2019-05-29T22:39:29.062Z,98614.39
2019-05-29T22:42:00.168Z,98618.56
2019-05-29T22:44:31.167Z,98616.90
2019-05-29T22:47:02.326Z,98627.06
2019-05-29T22:49:33.493Z,98629.06
2019-05-29T22:52:05.041Z,98627.04
2019-05-29T22:54:36.089Z,98625.97
2019-05-29T22:57:07.229Z,98629.78
2019-05-29T22:59:38.138Z,98625.34
2019-05-29T23:02:09.380Z,98618.42
2019-05-29T23:04:40.727Z,98630.98
2019-05-29T23:07:11.961Z,98625.25
2019-05-29T23:09:43.095Z,98627.88
2019-05-29T23:12:14.519Z,98628.70
2019-05-29T23:14:45.479Z,98633.59
2019-05-29T23:17:16.654Z,98633.23
2019-05-29T23:19:47.699Z,98633.23
2019-05-29T23:22:19.113Z,98632.03
2019-05-29T23:24:50.081Z,98634.78
2019-05-29T23:27:21.275Z,98641.23
2019-05-29T23:29:52.817Z,98644.22
2019-05-29T23:32:24.228Z,98643.03
2019-05-29T23:34:55.482Z,98638.25
2019-05-29T23:37:26.613Z,98638.13
2019-05-29T23:39:57.534Z,98633.12
2019-05-29T23:42:28.463Z,98633.95
2019-05-29T23:44:59.488Z,98637.66
2019-05-29T23:47:30.992Z,98630.82
2019-05-29T23:50:03.205Z,98629.63
2019-05-29T23:52:34.933Z,98634.88
2019-05-29T23:55:10.238Z,98632.38
2019-05-29T23:57:41.684Z,98637.52
